map of LJU home
LJU - Airport
Location
City:  Ljubljana, Slovenia
Near (Alt.):Brnik
Name:Ljubljana Joze Pucnik Airport
Old (Alt.):Brnik Airport
ICAO:LJLJ
IATA:LJU

Details
Type:Airport (Aerodrome, Airfield)
Use:Public/Civil, International (customs port of entry)
Latitude:4613'25"N (46.223686)
Longitude:1427'27"E (14.457611)
Datum:WGS 1984
Elevation:1273 ft (388 m)
Variation:3.92E (WMM2015v2 magnetic declination)
0.15 annual change
Runways:1
Longest:10827 × 148 ft (3300 × 45 m), paved

Time
Time Zone:UTC+1 (DST+2)
Local Time:

Weather
METAR:LJLJ 041400Z 17008KT 140V200 9999 FEW050 SCT100 06/M01 Q1026 NOSIG
TAF:LJLJ 041400Z 0415/0515 VRB03KT 9999 FEW050 SCT100
TEMPO 0415/0503 BKN035
BECMG 0416/0418 30003KT
TEMPO 0503/0509 0400 FZFG VV001
BECMG 0508/0510 12004KT FEW020 SCT055

Related Locations
Nearby:
Farthest:CHT: 11880 mi / 19119 km
Waitangi [Tuuta], CIT, NZ

Find:

   beyond  
but within

Other Information
Maps:
NOTAMs:
Links:
Sources:

  
  • flag of Slovenia
  

Sectional Chart

Flight Planning
at skyvector.com

Satellite Image

Google Maps Satellite view

 

Copyright © 2004-2019 Karl L. Swartz. All rights reserved.
The Great Circle Mapper name and logo are trademarks of the Great Circle Mapper.
All other trademarks mentioned herein belong to their respective owners.
Please see credits for attibutions and further copyright information.

  Follow gcmap on Facebook Follow gcmap on Twitter GCmap on LinkedIn

hCard Microformat

Geo Microformat